MDT,Max TemperatureF,Mean TemperatureF,Min TemperatureF,Max Dew PointF,MeanDew PointF,Min DewpointF,Max Humidity, Mean Humidity, Min Humidity, Max Sea Level PressureIn, Mean Sea Level PressureIn, Min Sea Level PressureIn, Max VisibilityMiles, Mean VisibilityMiles, Min VisibilityMiles, Max Wind SpeedMPH, Mean Wind SpeedMPH, Max Gust SpeedMPH,PrecipitationIn, CloudCover, Events, WindDirDegrees
2012-9-1,85,71,57,45,34,24,40,26,12,29.97,29.86,29.70,10,10,10,17,7,22,0.00,0,,300
2012-9-2,86,69,51,35,26,18,43,26,9,30.09,30.01,29.93,10,9,4,13,5,15,0.00,0,,135
2012-9-3,88,71,53,37,26,21,29,20,11,30.05,29.97,29.88,10,10,10,12,5,15,0.00,0,,185
2012-9-4,86,70,53,38,33,25,54,34,14,30.08,30.01,29.94,10,10,10,16,6,23,0.00,0,,259
2012-9-5,91,73,55,41,34,29,40,26,11,30.03,29.93,29.79,10,10,10,10,5,13,0.00,0,,160
2012-9-6,85,72,58,40,35,31,46,31,15,30.00,29.93,29.80,10,10,8,9,4,13,0.00,0,,123
2012-9-7,88,72,55,41,36,30,43,30,16,30.18,30.11,30.01,10,10,10,15,6,20,0.00,0,,148
2012-9-8,95,77,59,33,29,27,29,20,10,30.15,30.04,29.87,10,10,10,17,7,21,0.00,0,,129
2012-9-9,93,80,67,44,36,28,34,25,15,29.97,29.81,29.70,10,10,10,17,7,23,0.01,0,Rain-Thunderstorm,54
2012-9-10,80,66,52,40,34,28,51,34,16,30.03,29.89,29.75,10,10,7,16,7,22,0.00,0,,316
2012-9-11,72,60,47,40,30,20,56,35,14,30.12,30.06,29.93,10,10,10,18,10,24,0.00,0,,293
2012-9-12,78,61,44,29,25,15,49,29,9,30.29,30.22,30.11,10,9,4,18,6,24,0.00,0,,264
2012-9-13,86,68,50,32,24,15,35,22,8,30.36,30.26,30.17,10,9,7,15,7,18,0.00,0,,149
2012-9-14,90,72,53,38,27,23,30,21,11,30.19,30.09,29.97,10,9,7,15,7,18,0.00,0,,125
2012-9-15,91,75,58,36,28,21,27,20,12,30.08,30.00,29.91,10,10,10,15,6,21,0.00,0,,83
2012-9-16,86,70,53,40,35,30,54,34,14,30.05,30.00,29.94,10,8,5,20,7,25,0.00,0,,272
2012-9-17,82,66,49,37,32,25,52,33,13,30.14,30.07,30.02,10,7,3,15,4,18,0.00,0,,238
2012-9-18,86,71,55,31,28,23,38,24,10,30.14,30.05,29.99,10,8,5,13,5,16,0.00,0,,127
2012-9-19,84,69,53,35,30,26,35,26,16,30.13,30.06,30.03,10,8,5,12,5,15,0.00,0,,155
2012-9-20,78,67,56,40,31,27,40,29,18,30.16,30.07,30.02,7,5,3,12,5,15,0.00,0,,153
2012-9-21,79,66,53,42,34,30,47,33,19,30.10,30.02,29.96,5,4,3,14,5,17,0.00,0,,100
2012-9-22,79,65,51,45,37,29,48,35,21,30.01,29.96,29.90,4,3,2,17,5,24,0.00,0,,312
2012-9-23,67,60,52,52,44,37,89,63,37,30.08,30.00,29.88,9,5,2,18,5,24,0.04,2,Rain,298
2012-9-24,76,62,47,52,46,40,93,61,29,30.09,30.02,29.94,10,8,3,14,4,17,0.00,0,,293
2012-9-25,79,68,56,47,45,42,61,46,30,30.00,29.92,29.88,10,9,7,9,3,,0.00,2,,274
2012-9-26,82,70,57,48,45,38,67,45,23,30.06,29.97,29.91,10,9,7,13,6,15,0.00,0,,136
2012-9-27,85,69,53,46,38,35,54,37,20,30.07,29.99,29.93,10,10,8,10,5,13,0.00,0,,121
2012-9-28,82,69,56,46,37,33,55,38,20,30.00,29.94,29.89,10,10,6,20,6,26,0.00,0,,103
2012-9-29,84,70,55,43,38,33,51,34,17,30.09,30.03,29.95,10,10,7,12,4,15,0.00,0,,313
2012-9-30,82,68,54,44,35,28,43,29,15,30.23,30.15,30.07,10,9,6,17,7,20,0.00,0,,288